Dayton, OH (45400)

9:20 AM EDT on September 01, 2014 (GMT -0400)
Sinclair Dayton Campus | Change Station
CLOSE
Current Station
Personal Weather Station
Location: Dayton, OH
Elevation: 780 ft
Nearby Weather Stations

Elev 780 ft 39.76 °N, 84.20 °W | Updated 1 second ago

Mostly Cloudy
Mostly Cloudy
76.0 °F
Feels Like 76 °F
N
2.0
Wind Variable Wind from SSW
Gusts 9.0 mph

Today
High -- | Low -- °F
--% Chance of Precip.
Yesterday
High -- | Low -- °F
Precip. -- in
7:04 AM 8:07 PM
Waxing Crescent, 40% visible
Pressure 29.98 in
Visibility 10.0 miles
Clouds Scattered Clouds 700 ft
Mostly Cloudy 1100 ft
Heat Index 76 °F
Dew Point 72 °F
Humidity 87%
Rainfall 0.00 in
Snow Depth Not available.
UV 4.0 out of 12
Pollen 10.00 out of 12
Ozone Good
PM2.5 Good
Flu Activity Not available.
METAR KFFO 011258Z 18007KT 10SM SCT007 BKN011 24/23 A2999 RMK AO2A SLP152 T02370225

More Conditions Fewer Conditions

Pressure 29.98 in
Visibility 10.0 miles
Clouds Scattered Clouds 700 ft
Mostly Cloudy 1100 ft
Heat Index 76 °F
Dew Point 72 °F
Humidity 87%
Rainfall 0.00 in
Snow Depth Not available.
UV 4.0 out of 12
Pollen 10.00 out of 12
Ozone Good
PM2.5 Good
Flu Activity Not available.
METAR KFFO 011258Z 18007KT 10SM SCT007 BKN011 24/23 A2999 RMK AO2A SLP152 T02370225

More Conditions Fewer Conditions

10-Day Weather Forecast

Almanac

Astronomy

Sep. 01, 2014 Rise Set
Actual Time 7:04 AM EDT 8:07 PM EDT
Civil Twilight 6:37 AM EDT 8:35 PM EDT
Nautical Twilight 6:04 AM EDT 9:08 PM EDT
Astronomical Twilight 5:29 AM EDT 9:42 PM EDT
Moon 1:48 PM EDT No Moon Set
Length of Visible Light 13h 58m
Length of Day
13h 03m
Tomorrow will be 2m 31s shorter.
Waxing Crescent, 40% of the Moon is Illuminated
Today
Waxing Crescent
Sep 2
First Quarter
Sep 8
Full
Sep 15
Last Quarter
Sep 24
New

Today's Extremes

State Highs State Lows

Community

WunderPhotos

Upload Photos

1,749,215 photos uploaded!

Nearby

Air Quality

  Air Quality AQ Index Pollutant
Yesterday Good
PM2.5
Yesterday Good
OZONE
Current Good
PM2.5
Current Good
OZONE
Monday Moderate
PM2.5
Monday Good
OZONE
Tuesday Moderate
PM2.5
Tuesday Good
OZONE

Snow Depth

Station Depth Elevation
No new snow has been reported.

Earthquake Activity

City Distance Mag. Time & Date
No recent earthquake activity has been reported nearby.
Minimum magnitude displayed is 2.5.

Coastal Water Temperatures

Place Temperature
No Stations Reporting

Nearby Weather Stations